sensor_id;sensor_type;location;lat;lon;timestamp;temperature;humidity
20528;DHT22;23612;50.894;10.700;2023-05-07T00:01:06;10.60;99.90
20528;DHT22;23612;50.894;10.700;2023-05-07T00:03:31;10.60;99.90
20528;DHT22;23612;50.894;10.700;2023-05-07T00:05:57;10.60;99.90
20528;DHT22;23612;50.894;10.700;2023-05-07T00:08:23;10.50;99.90
20528;DHT22;23612;50.894;10.700;2023-05-07T00:10:48;10.50;99.90
20528;DHT22;23612;50.894;10.700;2023-05-07T00:13:14;10.60;99.90
20528;DHT22;23612;50.894;10.700;2023-05-07T00:15:40;10.60;99.90
20528;DHT22;23612;50.894;10.700;2023-05-07T00:18:05;10.60;99.90
20528;DHT22;23612;50.894;10.700;2023-05-07T00:20:31;10.60;99.90
20528;DHT22;23612;50.894;10.700;2023-05-07T00:22:57;10.60;99.90
20528;DHT22;23612;50.894;10.700;2023-05-07T00:25:22;10.60;99.90
20528;DHT22;23612;50.894;10.700;2023-05-07T00:27:47;10.70;99.90
20528;DHT22;23612;50.894;10.700;2023-05-07T00:30:13;10.70;99.90
20528;DHT22;23612;50.894;10.700;2023-05-07T00:32:39;10.60;99.90
20528;DHT22;23612;50.894;10.700;2023-05-07T00:35:05;10.50;99.90
20528;DHT22;23612;50.894;10.700;2023-05-07T00:37:31;10.50;99.90
20528;DHT22;23612;50.894;10.700;2023-05-07T00:39:56;10.50;99.90
20528;DHT22;23612;50.894;10.700;2023-05-07T00:42:22;10.50;99.90
20528;DHT22;23612;50.894;10.700;2023-05-07T00:44:47;10.40;99.90
20528;DHT22;23612;50.894;10.700;2023-05-07T00:47:13;10.30;99.90
20528;DHT22;23612;50.894;10.700;2023-05-07T00:49:41;10.20;99.90
20528;DHT22;23612;50.894;10.700;2023-05-07T00:52:13;10.10;99.90
20528;DHT22;23612;50.894;10.700;2023-05-07T00:54:40;10.00;99.90
20528;DHT22;23612;50.894;10.700;2023-05-07T00:57:06;10.00;99.90
20528;DHT22;23612;50.894;10.700;2023-05-07T00:59:32;9.90;99.90
20528;DHT22;23612;50.894;10.700;2023-05-07T01:01:58;9.90;99.90
20528;DHT22;23612;50.894;10.700;2023-05-07T01:04:24;9.80;99.90
20528;DHT22;23612;50.894;10.700;2023-05-07T01:06:50;9.80;99.90
20528;DHT22;23612;50.894;10.700;2023-05-07T01:09:16;9.80;99.90
20528;DHT22;23612;50.894;10.700;2023-05-07T01:11:42;9.80;99.90
20528;DHT22;23612;50.894;10.700;2023-05-07T01:14:09;9.70;99.90
20528;DHT22;23612;50.894;10.700;2023-05-07T01:16:36;9.70;99.90
20528;DHT22;23612;50.894;10.700;2023-05-07T01:19:01;9.60;99.90
20528;DHT22;23612;50.894;10.700;2023-05-07T01:21:28;9.50;99.90
20528;DHT22;23612;50.894;10.700;2023-05-07T01:23:57;9.50;99.90
20528;DHT22;23612;50.894;10.700;2023-05-07T01:26:23;9.50;99.90
20528;DHT22;23612;50.894;10.700;2023-05-07T01:28:49;9.40;99.90
20528;DHT22;23612;50.894;10.700;2023-05-07T01:31:15;9.40;99.90
20528;DHT22;23612;50.894;10.700;2023-05-07T01:33:43;9.40;99.90
20528;DHT22;23612;50.894;10.700;2023-05-07T01:36:10;9.40;99.90
20528;DHT22;23612;50.894;10.700;2023-05-07T01:38:37;9.30;99.90
20528;DHT22;23612;50.894;10.700;2023-05-07T01:41:03;9.30;99.90
20528;DHT22;23612;50.894;10.700;2023-05-07T01:43:30;9.30;99.90
20528;DHT22;23612;50.894;10.700;2023-05-07T01:45:57;9.30;99.90
20528;DHT22;23612;50.894;10.700;2023-05-07T01:48:24;9.30;99.90
20528;DHT22;23612;50.894;10.700;2023-05-07T01:50:51;9.30;99.90
20528;DHT22;23612;50.894;10.700;2023-05-07T01:53:16;9.30;99.90
20528;DHT22;23612;50.894;10.700;2023-05-07T01:55:42;9.30;99.90
20528;DHT22;23612;50.894;10.700;2023-05-07T01:58:07;9.30;99.90
20528;DHT22;23612;50.894;10.700;2023-05-07T02:00:33;9.30;99.90
20528;DHT22;23612;50.894;10.700;2023-05-07T02:02:58;9.30;99.90
20528;DHT22;23612;50.894;10.700;2023-05-07T02:05:24;9.30;99.90
20528;DHT22;23612;50.894;10.700;2023-05-07T02:07:49;9.30;99.90
20528;DHT22;23612;50.894;10.700;2023-05-07T02:10:15;9.30;99.90
20528;DHT22;23612;50.894;10.700;2023-05-07T02:12:40;9.30;99.90
20528;DHT22;23612;50.894;10.700;2023-05-07T02:15:06;9.30;99.90
20528;DHT22;23612;50.894;10.700;2023-05-07T02:17:32;9.30;99.90
20528;DHT22;23612;50.894;10.700;2023-05-07T02:19:58;9.30;99.90
20528;DHT22;23612;50.894;10.700;2023-05-07T02:22:24;9.30;99.90
20528;DHT22;23612;50.894;10.700;2023-05-07T02:24:49;9.40;99.90
20528;DHT22;23612;50.894;10.700;2023-05-07T02:27:15;9.40;99.90
20528;DHT22;23612;50.894;10.700;2023-05-07T02:29:40;9.50;99.90
20528;DHT22;23612;50.894;10.700;2023-05-07T02:32:06;9.50;99.90
20528;DHT22;23612;50.894;10.700;2023-05-07T02:34:31;9.50;99.90
20528;DHT22;23612;50.894;10.700;2023-05-07T02:36:57;9.50;99.90
20528;DHT22;23612;50.894;10.700;2023-05-07T02:39:22;9.50;99.90
20528;DHT22;23612;50.894;10.700;2023-05-07T02:41:48;9.40;99.90
20528;DHT22;23612;50.894;10.700;2023-05-07T02:44:13;9.50;99.90
20528;DHT22;23612;50.894;10.700;2023-05-07T02:46:39;9.50;99.90
20528;DHT22;23612;50.894;10.700;2023-05-07T02:49:04;9.40;99.90
20528;DHT22;23612;50.894;10.700;2023-05-07T02:51:30;9.40;99.90
20528;DHT22;23612;50.894;10.700;2023-05-07T02:53:56;9.40;99.90
20528;DHT22;23612;50.894;10.700;2023-05-07T02:56:21;9.40;99.90
20528;DHT22;23612;50.894;10.700;2023-05-07T02:58:47;9.40;99.90
20528;DHT22;23612;50.894;10.700;2023-05-07T03:01:13;9.40;99.90
20528;DHT22;23612;50.894;10.700;2023-05-07T03:03:39;9.40;99.90
20528;DHT22;23612;50.894;10.700;2023-05-07T03:06:05;9.40;99.90
20528;DHT22;23612;50.894;10.700;2023-05-07T03:08:32;9.40;99.90
20528;DHT22;23612;50.894;10.700;2023-05-07T03:10:58;9.30;99.90
20528;DHT22;23612;50.894;10.700;2023-05-07T03:13:23;9.30;99.90
20528;DHT22;23612;50.894;10.700;2023-05-07T03:15:49;9.30;99.90
20528;DHT22;23612;50.894;10.700;2023-05-07T03:18:14;9.30;99.90
20528;DHT22;23612;50.894;10.700;2023-05-07T03:20:40;9.40;99.90
20528;DHT22;23612;50.894;10.700;2023-05-07T03:23:05;9.40;99.90
20528;DHT22;23612;50.894;10.700;2023-05-07T03:25:31;9.30;99.90
20528;DHT22;23612;50.894;10.700;2023-05-07T03:27:57;9.40;99.90
20528;DHT22;23612;50.894;10.700;2023-05-07T03:30:23;9.40;99.90
20528;DHT22;23612;50.894;10.700;2023-05-07T03:32:48;9.30;99.90
20528;DHT22;23612;50.894;10.700;2023-05-07T03:35:14;9.30;99.90
20528;DHT22;23612;50.894;10.700;2023-05-07T03:37:40;9.30;99.90
20528;DHT22;23612;50.894;10.700;2023-05-07T03:40:06;9.20;99.90
20528;DHT22;23612;50.894;10.700;2023-05-07T03:42:31;9.30;99.90
20528;DHT22;23612;50.894;10.700;2023-05-07T03:44:57;9.30;99.90
20528;DHT22;23612;50.894;10.700;2023-05-07T03:47:22;9.30;99.90
20528;DHT22;23612;50.894;10.700;2023-05-07T03:49:48;9.30;99.90
20528;DHT22;23612;50.894;10.700;2023-05-07T03:52:14;9.30;99.90
20528;DHT22;23612;50.894;10.700;2023-05-07T03:54:40;9.30;99.90
20528;DHT22;23612;50.894;10.700;2023-05-07T03:57:05;9.30;99.90
20528;DHT22;23612;50.894;10.700;2023-05-07T03:59:31;9.30;99.90
20528;DHT22;23612;50.894;10.700;2023-05-07T04:01:56;9.30;99.90
20528;DHT22;23612;50.894;10.700;2023-05-07T04:04:22;9.40;99.90
20528;DHT22;23612;50.894;10.700;2023-05-07T04:06:47;9.40;99.90
20528;DHT22;23612;50.894;10.700;2023-05-07T04:09:13;9.40;99.90
20528;DHT22;23612;50.894;10.700;2023-05-07T04:11:39;9.30;99.90
20528;DHT22;23612;50.894;10.700;2023-05-07T04:14:05;9.30;99.90
20528;DHT22;23612;50.894;10.700;2023-05-07T04:16:31;9.30;99.90
20528;DHT22;23612;50.894;10.700;2023-05-07T04:18:56;9.30;99.90
20528;DHT22;23612;50.894;10.700;2023-05-07T04:21:22;9.30;99.90
20528;DHT22;23612;50.894;10.700;2023-05-07T04:23:48;9.20;99.90
20528;DHT22;23612;50.894;10.700;2023-05-07T04:26:14;9.20;99.90
20528;DHT22;23612;50.894;10.700;2023-05-07T04:28:40;9.20;99.90
20528;DHT22;23612;50.894;10.700;2023-05-07T04:31:06;9.20;99.90
20528;DHT22;23612;50.894;10.700;2023-05-07T04:33:32;9.20;99.90
20528;DHT22;23612;50.894;10.700;2023-05-07T04:36:00;9.20;99.90
20528;DHT22;23612;50.894;10.700;2023-05-07T04:38:29;9.10;99.90
20528;DHT22;23612;50.894;10.700;2023-05-07T04:40:55;9.20;99.90
20528;DHT22;23612;50.894;10.700;2023-05-07T04:43:21;9.20;99.90
20528;DHT22;23612;50.894;10.700;2023-05-07T04:45:46;9.20;99.90
20528;DHT22;23612;50.894;10.700;2023-05-07T04:48:12;9.20;99.90
20528;DHT22;23612;50.894;10.700;2023-05-07T04:50:39;9.20;99.90
20528;DHT22;23612;50.894;10.700;2023-05-07T04:53:06;9.20;99.90
20528;DHT22;23612;50.894;10.700;2023-05-07T04:55:31;9.20;99.90
20528;DHT22;23612;50.894;10.700;2023-05-07T04:57:56;9.20;99.90
20528;DHT22;23612;50.894;10.700;2023-05-07T05:00:22;9.20;99.90
20528;DHT22;23612;50.894;10.700;2023-05-07T05:02:48;9.10;99.90
20528;DHT22;23612;50.894;10.700;2023-05-07T05:05:13;9.10;99.90
20528;DHT22;23612;50.894;10.700;2023-05-07T05:07:39;9.20;99.90
20528;DHT22;23612;50.894;10.700;2023-05-07T05:10:05;9.20;99.90
20528;DHT22;23612;50.894;10.700;2023-05-07T05:12:31;9.10;99.90
20528;DHT22;23612;50.894;10.700;2023-05-07T05:14:56;9.20;99.90
20528;DHT22;23612;50.894;10.700;2023-05-07T05:17:22;9.20;99.90
20528;DHT22;23612;50.894;10.700;2023-05-07T05:19:47;9.10;99.90
20528;DHT22;23612;50.894;10.700;2023-05-07T05:22:13;9.10;99.90
20528;DHT22;23612;50.894;10.700;2023-05-07T05:24:38;9.10;99.90
20528;DHT22;23612;50.894;10.700;2023-05-07T05:27:04;9.10;99.90
20528;DHT22;23612;50.894;10.700;2023-05-07T05:29:29;9.10;99.90
20528;DHT22;23612;50.894;10.700;2023-05-07T05:31:56;9.00;99.90
20528;DHT22;23612;50.894;10.700;2023-05-07T05:34:22;9.10;99.90
20528;DHT22;23612;50.894;10.700;2023-05-07T05:36:47;9.10;99.90
20528;DHT22;23612;50.894;10.700;2023-05-07T05:39:13;9.20;99.90
20528;DHT22;23612;50.894;10.700;2023-05-07T05:41:39;9.20;99.90
20528;DHT22;23612;50.894;10.700;2023-05-07T05:44:05;9.20;99.90
20528;DHT22;23612;50.894;10.700;2023-05-07T05:46:30;9.20;99.90
20528;DHT22;23612;50.894;10.700;2023-05-07T05:48:56;9.20;99.90
20528;DHT22;23612;50.894;10.700;2023-05-07T05:51:22;9.20;99.90
20528;DHT22;23612;50.894;10.700;2023-05-07T05:53:48;9.20;99.90
20528;DHT22;23612;50.894;10.700;2023-05-07T05:56:14;9.20;99.90
20528;DHT22;23612;50.894;10.700;2023-05-07T05:58:40;9.30;99.90
20528;DHT22;23612;50.894;10.700;2023-05-07T06:01:06;9.30;99.90
20528;DHT22;23612;50.894;10.700;2023-05-07T06:03:32;9.30;99.90
20528;DHT22;23612;50.894;10.700;2023-05-07T06:06:00;9.30;99.90
20528;DHT22;23612;50.894;10.700;2023-05-07T06:08:28;9.30;99.90
20528;DHT22;23612;50.894;10.700;2023-05-07T06:10:54;9.40;99.90
20528;DHT22;23612;50.894;10.700;2023-05-07T06:13:20;9.40;99.90
20528;DHT22;23612;50.894;10.700;2023-05-07T06:15:45;9.40;99.90
20528;DHT22;23612;50.894;10.700;2023-05-07T06:18:11;9.40;99.90
20528;DHT22;23612;50.894;10.700;2023-05-07T06:20:36;9.40;99.90
20528;DHT22;23612;50.894;10.700;2023-05-07T06:23:02;9.50;99.90
20528;DHT22;23612;50.894;10.700;2023-05-07T06:25:27;9.40;99.90
20528;DHT22;23612;50.894;10.700;2023-05-07T06:27:53;9.40;99.90
20528;DHT22;23612;50.894;10.700;2023-05-07T06:30:19;9.40;99.90
20528;DHT22;23612;50.894;10.700;2023-05-07T06:32:45;9.60;99.90
20528;DHT22;23612;50.894;10.700;2023-05-07T06:35:10;9.60;99.90
20528;DHT22;23612;50.894;10.700;2023-05-07T06:37:36;9.70;99.90
20528;DHT22;23612;50.894;10.700;2023-05-07T06:40:04;9.70;99.90
20528;DHT22;23612;50.894;10.700;2023-05-07T06:42:30;9.70;99.90
20528;DHT22;23612;50.894;10.700;2023-05-07T06:44:55;9.80;99.90
20528;DHT22;23612;50.894;10.700;2023-05-07T06:47:21;9.80;99.90
20528;DHT22;23612;50.894;10.700;2023-05-07T06:49:46;9.90;99.90
20528;DHT22;23612;50.894;10.700;2023-05-07T06:52:12;10.00;99.90
20528;DHT22;23612;50.894;10.700;2023-05-07T06:54:37;10.00;99.90
20528;DHT22;23612;50.894;10.700;2023-05-07T06:57:03;10.00;99.90
20528;DHT22;23612;50.894;10.700;2023-05-07T06:59:28;10.10;99.90
20528;DHT22;23612;50.894;10.700;2023-05-07T07:01:54;10.10;99.90
20528;DHT22;23612;50.894;10.700;2023-05-07T07:04:19;10.10;99.90
20528;DHT22;23612;50.894;10.700;2023-05-07T07:06:47;10.00;99.90
20528;DHT22;23612;50.894;10.700;2023-05-07T07:09:12;10.00;99.90
20528;DHT22;23612;50.894;10.700;2023-05-07T07:11:38;10.00;99.90
20528;DHT22;23612;50.894;10.700;2023-05-07T07:14:04;9.90;99.90
20528;DHT22;23612;50.894;10.700;2023-05-07T07:16:30;10.00;99.90
20528;DHT22;23612;50.894;10.700;2023-05-07T07:18:56;10.00;99.90
20528;DHT22;23612;50.894;10.700;2023-05-07T07:21:21;10.00;99.90
20528;DHT22;23612;50.894;10.700;2023-05-07T07:23:47;10.00;99.90
20528;DHT22;23612;50.894;10.700;2023-05-07T07:26:12;10.00;99.90
20528;DHT22;23612;50.894;10.700;2023-05-07T07:28:44;10.00;99.90
20528;DHT22;23612;50.894;10.700;2023-05-07T07:31:10;10.10;99.90
20528;DHT22;23612;50.894;10.700;2023-05-07T07:33:36;10.00;99.90
20528;DHT22;23612;50.894;10.700;2023-05-07T07:36:02;10.00;99.90
20528;DHT22;23612;50.894;10.700;2023-05-07T07:38:27;10.00;99.90
20528;DHT22;23612;50.894;10.700;2023-05-07T07:40:53;10.00;99.90
20528;DHT22;23612;50.894;10.700;2023-05-07T07:43:18;10.10;99.90
20528;DHT22;23612;50.894;10.700;2023-05-07T07:45:44;10.10;99.90
20528;DHT22;23612;50.894;10.700;2023-05-07T07:48:11;10.10;99.90
20528;DHT22;23612;50.894;10.700;2023-05-07T07:50:36;10.30;99.90
20528;DHT22;23612;50.894;10.700;2023-05-07T07:53:02;10.30;99.90
20528;DHT22;23612;50.894;10.700;2023-05-07T07:55:28;10.40;99.90
20528;DHT22;23612;50.894;10.700;2023-05-07T07:57:53;10.30;99.90
20528;DHT22;23612;50.894;10.700;2023-05-07T08:00:19;10.30;99.90
20528;DHT22;23612;50.894;10.700;2023-05-07T08:02:44;10.30;99.90
20528;DHT22;23612;50.894;10.700;2023-05-07T08:05:10;10.30;99.90
20528;DHT22;23612;50.894;10.700;2023-05-07T08:07:35;10.30;99.90
20528;DHT22;23612;50.894;10.700;2023-05-07T08:10:01;10.30;99.90
20528;DHT22;23612;50.894;10.700;2023-05-07T08:12:27;10.10;99.90
20528;DHT22;23612;50.894;10.700;2023-05-07T08:14:53;10.10;99.90
20528;DHT22;23612;50.894;10.700;2023-05-07T08:17:18;10.10;99.90
20528;DHT22;23612;50.894;10.700;2023-05-07T08:19:44;10.10;99.90
20528;DHT22;23612;50.894;10.700;2023-05-07T08:22:10;10.10;99.90
20528;DHT22;23612;50.894;10.700;2023-05-07T08:24:36;10.10;99.90
20528;DHT22;23612;50.894;10.700;2023-05-07T08:27:02;10.00;99.90
20528;DHT22;23612;50.894;10.700;2023-05-07T08:29:27;10.00;99.90
20528;DHT22;23612;50.894;10.700;2023-05-07T08:31:53;10.00;99.90
20528;DHT22;23612;50.894;10.700;2023-05-07T08:34:19;10.00;99.90
20528;DHT22;23612;50.894;10.700;2023-05-07T08:36:44;10.00;99.90
20528;DHT22;23612;50.894;10.700;2023-05-07T08:39:12;10.00;99.90
20528;DHT22;23612;50.894;10.700;2023-05-07T08:41:37;10.00;99.90
20528;DHT22;23612;50.894;10.700;2023-05-07T08:44:06;10.00;99.90
20528;DHT22;23612;50.894;10.700;2023-05-07T08:46:36;9.90;99.90
20528;DHT22;23612;50.894;10.700;2023-05-07T08:49:02;9.90;99.90
20528;DHT22;23612;50.894;10.700;2023-05-07T08:51:28;9.90;99.90
20528;DHT22;23612;50.894;10.700;2023-05-07T08:53:53;9.90;99.90
20528;DHT22;23612;50.894;10.700;2023-05-07T08:56:19;9.90;99.90
20528;DHT22;23612;50.894;10.700;2023-05-07T08:58:45;9.90;99.90
20528;DHT22;23612;50.894;10.700;2023-05-07T09:01:15;9.90;99.90
20528;DHT22;23612;50.894;10.700;2023-05-07T09:03:44;10.00;99.90
20528;DHT22;23612;50.894;10.700;2023-05-07T09:06:09;10.00;99.90
20528;DHT22;23612;50.894;10.700;2023-05-07T09:08:35;9.90;99.90
20528;DHT22;23612;50.894;10.700;2023-05-07T09:11:01;10.00;99.90
20528;DHT22;23612;50.894;10.700;2023-05-07T09:13:27;10.00;99.90
20528;DHT22;23612;50.894;10.700;2023-05-07T09:15:53;9.90;99.90
20528;DHT22;23612;50.894;10.700;2023-05-07T09:18:19;10.00;99.90
20528;DHT22;23612;50.894;10.700;2023-05-07T09:20:44;10.00;99.90
20528;DHT22;23612;50.894;10.700;2023-05-07T09:23:10;10.10;99.90
20528;DHT22;23612;50.894;10.700;2023-05-07T09:25:36;10.10;99.90
20528;DHT22;23612;50.894;10.700;2023-05-07T09:28:03;10.10;99.90
20528;DHT22;23612;50.894;10.700;2023-05-07T09:30:32;10.10;99.90
20528;DHT22;23612;50.894;10.700;2023-05-07T09:32:58;10.20;99.90
20528;DHT22;23612;50.894;10.700;2023-05-07T09:35:24;10.20;99.90
20528;DHT22;23612;50.894;10.700;2023-05-07T09:37:56;10.20;99.90
20528;DHT22;23612;50.894;10.700;2023-05-07T09:40:25;10.20;99.90
20528;DHT22;23612;50.894;10.700;2023-05-07T09:42:50;10.20;99.90
20528;DHT22;23612;50.894;10.700;2023-05-07T09:45:30;10.30;99.90
20528;DHT22;23612;50.894;10.700;2023-05-07T09:47:57;10.30;99.90
20528;DHT22;23612;50.894;10.700;2023-05-07T09:50:28;10.30;99.90
20528;DHT22;23612;50.894;10.700;2023-05-07T09:52:55;10.20;99.90
20528;DHT22;23612;50.894;10.700;2023-05-07T09:55:22;10.10;99.90
20528;DHT22;23612;50.894;10.700;2023-05-07T09:57:52;10.10;99.90
20528;DHT22;23612;50.894;10.700;2023-05-07T10:00:21;10.20;99.90
20528;DHT22;23612;50.894;10.700;2023-05-07T10:02:52;10.20;99.90
20528;DHT22;23612;50.894;10.700;2023-05-07T10:05:21;10.10;99.90
20528;DHT22;23612;50.894;10.700;2023-05-07T10:07:47;10.20;99.90
20528;DHT22;23612;50.894;10.700;2023-05-07T10:10:14;10.20;99.90
20528;DHT22;23612;50.894;10.700;2023-05-07T10:12:43;10.30;99.90
20528;DHT22;23612;50.894;10.700;2023-05-07T10:15:10;10.30;99.90
20528;DHT22;23612;50.894;10.700;2023-05-07T10:17:39;10.30;99.90
20528;DHT22;23612;50.894;10.700;2023-05-07T10:20:06;10.40;99.90
20528;DHT22;23612;50.894;10.700;2023-05-07T10:22:38;10.50;99.90
20528;DHT22;23612;50.894;10.700;2023-05-07T10:25:07;10.50;99.90
20528;DHT22;23612;50.894;10.700;2023-05-07T10:27:35;10.50;99.90
20528;DHT22;23612;50.894;10.700;2023-05-07T10:30:14;10.60;99.90
20528;DHT22;23612;50.894;10.700;2023-05-07T10:32:56;10.70;99.90
20528;DHT22;23612;50.894;10.700;2023-05-07T10:35:32;10.90;99.90
20528;DHT22;23612;50.894;10.700;2023-05-07T10:38:01;10.90;99.90
20528;DHT22;23612;50.894;10.700;2023-05-07T10:40:27;10.90;99.90
20528;DHT22;23612;50.894;10.700;2023-05-07T10:42:56;10.90;99.90
20528;DHT22;23612;50.894;10.700;2023-05-07T10:45:22;10.90;99.90
20528;DHT22;23612;50.894;10.700;2023-05-07T10:50:33;11.00;99.90
20528;DHT22;23612;50.894;10.700;2023-05-07T10:55:47;11.10;99.90
20528;DHT22;23612;50.894;10.700;2023-05-07T10:58:27;11.10;99.90
20528;DHT22;23612;50.894;10.700;2023-05-07T11:01:00;11.30;99.90
20528;DHT22;23612;50.894;10.700;2023-05-07T11:03:27;11.30;99.90
20528;DHT22;23612;50.894;10.700;2023-05-07T11:06:12;11.40;99.90
20528;DHT22;23612;50.894;10.700;2023-05-07T11:08:54;11.50;99.90
20528;DHT22;23612;50.894;10.700;2023-05-07T11:11:26;11.50;99.90
20528;DHT22;23612;50.894;10.700;2023-05-07T11:14:05;11.60;99.90
20528;DHT22;23612;50.894;10.700;2023-05-07T11:16:32;11.70;99.90
20528;DHT22;23612;50.894;10.700;2023-05-07T11:18:58;11.70;99.90
20528;DHT22;23612;50.894;10.700;2023-05-07T11:21:38;11.60;99.90
20528;DHT22;23612;50.894;10.700;2023-05-07T11:24:10;11.70;99.90
20528;DHT22;23612;50.894;10.700;2023-05-07T11:26:47;11.80;99.90
20528;DHT22;23612;50.894;10.700;2023-05-07T11:29:17;11.90;99.90
20528;DHT22;23612;50.894;10.700;2023-05-07T11:31:43;12.10;99.90
20528;DHT22;23612;50.894;10.700;2023-05-07T11:34:09;12.20;99.90
20528;DHT22;23612;50.894;10.700;2023-05-07T11:36:42;12.00;99.90
20528;DHT22;23612;50.894;10.700;2023-05-07T11:39:31;12.10;99.90
20528;DHT22;23612;50.894;10.700;2023-05-07T11:41:59;12.40;99.90
20528;DHT22;23612;50.894;10.700;2023-05-07T11:44:25;12.60;99.90
20528;DHT22;23612;50.894;10.700;2023-05-07T11:46:51;12.80;99.90
20528;DHT22;23612;50.894;10.700;2023-05-07T11:49:17;12.90;99.90
20528;DHT22;23612;50.894;10.700;2023-05-07T11:51:43;13.20;99.90
20528;DHT22;23612;50.894;10.700;2023-05-07T11:54:10;13.10;99.90
20528;DHT22;23612;50.894;10.700;2023-05-07T11:56:36;13.20;99.90
20528;DHT22;23612;50.894;10.700;2023-05-07T11:59:02;13.50;99.90
20528;DHT22;23612;50.894;10.700;2023-05-07T12:01:28;13.70;99.90
20528;DHT22;23612;50.894;10.700;2023-05-07T12:03:53;13.70;99.90
20528;DHT22;23612;50.894;10.700;2023-05-07T12:06:18;14.10;99.90
20528;DHT22;23612;50.894;10.700;2023-05-07T12:08:45;14.20;99.90
20528;DHT22;23612;50.894;10.700;2023-05-07T12:11:24;14.10;99.90
20528;DHT22;23612;50.894;10.700;2023-05-07T12:13:51;14.00;99.90
20528;DHT22;23612;50.894;10.700;2023-05-07T12:16:17;13.80;99.90
20528;DHT22;23612;50.894;10.700;2023-05-07T12:18:44;13.90;99.90
20528;DHT22;23612;50.894;10.700;2023-05-07T12:21:09;14.10;99.90
20528;DHT22;23612;50.894;10.700;2023-05-07T12:23:36;14.10;99.90
20528;DHT22;23612;50.894;10.700;2023-05-07T12:26:02;14.30;99.90
20528;DHT22;23612;50.894;10.700;2023-05-07T12:28:27;14.50;99.90
20528;DHT22;23612;50.894;10.700;2023-05-07T12:30:53;14.50;99.90
20528;DHT22;23612;50.894;10.700;2023-05-07T12:33:24;14.60;99.90
20528;DHT22;23612;50.894;10.700;2023-05-07T12:35:49;14.50;99.90
20528;DHT22;23612;50.894;10.700;2023-05-07T12:38:16;14.20;99.90
20528;DHT22;23612;50.894;10.700;2023-05-07T12:40:46;14.10;99.90
20528;DHT22;23612;50.894;10.700;2023-05-07T12:43:17;14.10;99.90
20528;DHT22;23612;50.894;10.700;2023-05-07T12:45:49;14.40;99.90
20528;DHT22;23612;50.894;10.700;2023-05-07T12:48:15;14.60;99.90
20528;DHT22;23612;50.894;10.700;2023-05-07T12:50:41;14.60;99.90
20528;DHT22;23612;50.894;10.700;2023-05-07T12:53:08;14.50;99.90
20528;DHT22;23612;50.894;10.700;2023-05-07T12:55:42;14.40;99.90
20528;DHT22;23612;50.894;10.700;2023-05-07T12:58:08;14.70;99.90
20528;DHT22;23612;50.894;10.700;2023-05-07T13:00:39;15.00;99.90
20528;DHT22;23612;50.894;10.700;2023-05-07T13:03:05;14.90;99.90
20528;DHT22;23612;50.894;10.700;2023-05-07T13:05:31;14.80;99.90
20528;DHT22;23612;50.894;10.700;2023-05-07T13:07:57;15.10;99.90
20528;DHT22;23612;50.894;10.700;2023-05-07T13:10:23;15.20;99.90
20528;DHT22;23612;50.894;10.700;2023-05-07T13:12:50;15.00;99.90
20528;DHT22;23612;50.894;10.700;2023-05-07T13:15:16;14.80;99.90
20528;DHT22;23612;50.894;10.700;2023-05-07T13:17:41;14.70;99.90
20528;DHT22;23612;50.894;10.700;2023-05-07T13:20:09;14.70;99.90
20528;DHT22;23612;50.894;10.700;2023-05-07T13:22:34;14.70;99.90
20528;DHT22;23612;50.894;10.700;2023-05-07T13:25:00;14.80;99.90
20528;DHT22;23612;50.894;10.700;2023-05-07T13:27:25;14.70;99.90
20528;DHT22;23612;50.894;10.700;2023-05-07T13:29:51;14.90;99.90
20528;DHT22;23612;50.894;10.700;2023-05-07T13:32:17;14.80;99.90
20528;DHT22;23612;50.894;10.700;2023-05-07T13:34:42;14.80;99.90
20528;DHT22;23612;50.894;10.700;2023-05-07T13:37:08;14.90;99.90
20528;DHT22;23612;50.894;10.700;2023-05-07T13:39:33;14.60;99.90
20528;DHT22;23612;50.894;10.700;2023-05-07T13:41:59;14.60;99.90
20528;DHT22;23612;50.894;10.700;2023-05-07T13:44:24;14.60;99.90
20528;DHT22;23612;50.894;10.700;2023-05-07T13:46:50;14.90;99.90
20528;DHT22;23612;50.894;10.700;2023-05-07T13:49:16;15.00;99.90
20528;DHT22;23612;50.894;10.700;2023-05-07T13:51:41;14.80;99.90
20528;DHT22;23612;50.894;10.700;2023-05-07T13:54:07;14.70;99.90
20528;DHT22;23612;50.894;10.700;2023-05-07T13:56:32;14.60;99.90
20528;DHT22;23612;50.894;10.700;2023-05-07T13:58:58;14.90;99.90
20528;DHT22;23612;50.894;10.700;2023-05-07T14:01:24;15.00;99.90
20528;DHT22;23612;50.894;10.700;2023-05-07T14:03:49;15.40;99.90
20528;DHT22;23612;50.894;10.700;2023-05-07T14:06:15;15.50;99.90
20528;DHT22;23612;50.894;10.700;2023-05-07T14:08:40;15.70;99.90
20528;DHT22;23612;50.894;10.700;2023-05-07T14:11:06;15.80;99.90
20528;DHT22;23612;50.894;10.700;2023-05-07T14:13:31;15.70;99.90
20528;DHT22;23612;50.894;10.700;2023-05-07T14:15:58;15.50;99.90
20528;DHT22;23612;50.894;10.700;2023-05-07T14:18:23;15.60;99.90
20528;DHT22;23612;50.894;10.700;2023-05-07T14:20:49;15.50;99.90
20528;DHT22;23612;50.894;10.700;2023-05-07T14:23:15;15.40;99.90
20528;DHT22;23612;50.894;10.700;2023-05-07T14:25:42;15.60;99.90
20528;DHT22;23612;50.894;10.700;2023-05-07T14:31:14;15.70;99.90
20528;DHT22;23612;50.894;10.700;2023-05-07T14:33:40;15.60;99.90
20528;DHT22;23612;50.894;10.700;2023-05-07T14:36:06;15.60;99.90
20528;DHT22;23612;50.894;10.700;2023-05-07T14:38:31;15.50;99.90
20528;DHT22;23612;50.894;10.700;2023-05-07T14:40:58;15.50;99.90
20528;DHT22;23612;50.894;10.700;2023-05-07T14:43:23;15.20;99.90
20528;DHT22;23612;50.894;10.700;2023-05-07T14:45:49;15.30;99.90
20528;DHT22;23612;50.894;10.700;2023-05-07T14:48:15;15.40;99.90
20528;DHT22;23612;50.894;10.700;2023-05-07T14:50:41;15.50;99.90
20528;DHT22;23612;50.894;10.700;2023-05-07T14:53:07;15.50;99.90
20528;DHT22;23612;50.894;10.700;2023-05-07T14:55:34;15.50;99.90
20528;DHT22;23612;50.894;10.700;2023-05-07T14:58:00;15.30;99.90
20528;DHT22;23612;50.894;10.700;2023-05-07T15:00:26;15.50;99.90
20528;DHT22;23612;50.894;10.700;2023-05-07T15:02:51;15.90;99.90
20528;DHT22;23612;50.894;10.700;2023-05-07T15:05:17;15.80;99.90
20528;DHT22;23612;50.894;10.700;2023-05-07T15:07:44;15.80;99.90
20528;DHT22;23612;50.894;10.700;2023-05-07T15:10:10;15.90;99.90
20528;DHT22;23612;50.894;10.700;2023-05-07T15:12:35;15.90;99.90
20528;DHT22;23612;50.894;10.700;2023-05-07T15:15:01;15.90;99.90
20528;DHT22;23612;50.894;10.700;2023-05-07T15:17:26;16.00;99.90
20528;DHT22;23612;50.894;10.700;2023-05-07T15:19:52;16.10;99.90
20528;DHT22;23612;50.894;10.700;2023-05-07T15:22:17;16.30;99.90
20528;DHT22;23612;50.894;10.700;2023-05-07T15:24:43;16.40;99.90
20528;DHT22;23612;50.894;10.700;2023-05-07T15:27:09;16.30;99.90